createdAt,value
2018-11-13T00:02:14.756Z,98499.54
2018-11-13T00:04:45.095Z,98491.79
2018-11-13T00:07:15.420Z,98501.67
2018-11-13T00:10:01.562Z,98502.64
2018-11-13T00:12:32.169Z,98505.71
2018-11-13T00:15:02.808Z,98510.72
2018-11-13T00:17:33.437Z,98516.41
2018-11-13T00:20:04.423Z,98517.00
2018-11-13T00:22:35.214Z,98522.72
2018-11-13T00:25:07.159Z,98527.58
2018-11-13T00:27:37.821Z,98527.47
2018-11-13T00:30:12.409Z,98532.60
2018-11-13T00:32:43.532Z,98545.59
2018-11-13T00:35:14.944Z,98546.52
2018-11-13T00:37:46.489Z,98555.13
2018-11-13T00:40:18.134Z,98558.58
2018-11-13T00:42:49.223Z,98566.70
2018-11-13T00:45:20.025Z,98569.31
2018-11-13T00:47:51.473Z,98575.86
2018-11-13T00:50:22.153Z,98584.66
2018-11-13T00:52:53.091Z,98590.61
2018-11-13T00:55:23.657Z,98598.36
2018-11-13T00:57:54.223Z,98594.70
2018-11-13T01:00:25.248Z,98602.56
2018-11-13T01:02:56.276Z,98599.34
2018-11-13T01:05:26.932Z,98600.20
2018-11-13T01:07:57.663Z,98593.17
2018-11-13T01:10:28.252Z,98592.23
2018-11-13T01:12:58.844Z,98594.86
2018-11-13T01:15:29.408Z,98596.06
2018-11-13T01:18:00.033Z,98581.77
2018-11-13T01:20:30.616Z,98584.11
2018-11-13T01:23:01.215Z,98596.17
2018-11-13T01:25:31.835Z,98595.09
2018-11-13T01:28:02.492Z,98600.01
2018-11-13T01:30:33.066Z,98590.84
2018-11-13T01:33:03.860Z,98613.83
2018-11-13T01:35:34.459Z,98605.53
2018-11-13T01:38:05.096Z,98608.69
2018-11-13T01:40:35.804Z,98610.60
2018-11-13T01:43:07.139Z,98605.58
2018-11-13T01:45:37.751Z,98607.00
2018-11-13T01:48:09.060Z,98604.59
2018-11-13T01:50:39.520Z,98609.35
2018-11-13T01:53:10.117Z,98594.60
2018-11-13T01:55:41.012Z,98597.98
2018-11-13T01:58:11.625Z,98596.67
2018-11-13T02:00:42.228Z,98585.86
2018-11-13T02:03:12.980Z,98595.64
2018-11-13T02:05:44.718Z,98594.70
2018-11-13T02:08:15.284Z,98597.78
2018-11-13T02:10:45.913Z,98597.28
2018-11-13T02:13:16.524Z,98598.41
2018-11-13T02:15:47.149Z,98602.53
2018-11-13T02:18:19.485Z,98602.85
2018-11-13T02:20:49.772Z,98616.22
2018-11-13T02:23:20.347Z,98612.28
2018-11-13T02:25:50.957Z,98618.45
2018-11-13T02:28:21.747Z,98621.29
2018-11-13T02:30:52.341Z,98615.23
2018-11-13T02:33:22.932Z,98616.88
2018-11-13T02:35:53.628Z,98626.31
2018-11-13T02:38:24.366Z,98630.96
2018-11-13T02:40:54.993Z,98614.59
2018-11-13T02:43:25.672Z,98620.76
2018-11-13T02:45:56.316Z,98631.50
2018-11-13T02:48:26.926Z,98632.95
2018-11-13T02:50:57.762Z,98636.84
2018-11-13T02:53:28.381Z,98630.62
2018-11-13T02:55:59.012Z,98639.09
2018-11-13T02:58:29.640Z,98650.77
2018-11-13T03:01:00.265Z,98655.80
2018-11-13T03:03:31.108Z,98657.16
2018-11-13T03:06:01.781Z,98659.57
2018-11-13T03:08:32.359Z,98667.94
2018-11-13T03:11:02.954Z,98680.92
2018-11-13T03:13:33.579Z,98670.28
2018-11-13T03:16:04.607Z,98660.66
2018-11-13T03:18:35.903Z,98666.52
2018-11-13T03:21:06.772Z,98673.79
2018-11-13T03:23:37.431Z,98674.98
2018-11-13T03:26:08.433Z,98681.06
2018-11-13T03:28:39.031Z,98687.85
2018-11-13T03:31:09.701Z,98687.79
2018-11-13T03:33:40.463Z,98692.41
2018-11-13T03:36:11.171Z,98700.00
2018-11-13T03:38:41.953Z,98693.66
2018-11-13T03:41:12.850Z,98691.42
2018-11-13T03:43:43.485Z,98699.17
2018-11-13T03:46:14.351Z,98709.64
2018-11-13T03:48:45.063Z,98709.44
2018-11-13T03:51:16.159Z,98726.81
2018-11-13T03:53:46.769Z,98728.02
2018-11-13T03:56:17.351Z,98737.77
2018-11-13T03:58:47.975Z,98738.70
2018-11-13T04:01:18.663Z,98733.46
2018-11-13T04:03:49.321Z,98731.80
2018-11-13T04:06:19.965Z,98726.08
2018-11-13T04:08:51.252Z,98730.19
2018-11-13T04:11:21.856Z,98745.52
2018-11-13T04:13:52.453Z,98745.03
2018-11-13T04:16:23.011Z,98745.52
2018-11-13T04:18:53.625Z,98733.36
2018-11-13T04:21:24.504Z,98761.75
2018-11-13T04:23:55.311Z,98765.75
2018-11-13T04:26:26.197Z,98764.23
2018-11-13T04:28:57.148Z,98757.92
2018-11-13T04:31:27.760Z,98773.53
2018-11-13T04:33:58.408Z,98784.02
2018-11-13T04:36:29.037Z,98777.84
2018-11-13T04:38:59.424Z,98779.88
2018-11-13T04:41:29.775Z,98792.42
2018-11-13T04:44:00.623Z,98795.88
2018-11-13T04:46:31.208Z,98807.28
2018-11-13T04:49:01.808Z,98789.73
2018-11-13T04:51:32.535Z,98807.45
2018-11-13T04:54:03.241Z,98799.94
2018-11-13T04:56:34.040Z,98808.91
2018-11-13T04:59:05.264Z,98803.11
2018-11-13T05:01:35.971Z,98810.87
2018-11-13T05:04:07.132Z,98796.66
2018-11-13T05:06:38.352Z,98801.73
2018-11-13T05:09:09.113Z,98799.32
2018-11-13T05:11:39.740Z,98793.50
2018-11-13T05:14:10.332Z,98799.11
2018-11-13T05:16:41.365Z,98809.48
2018-11-13T05:19:11.949Z,98809.01
2018-11-13T05:21:43.152Z,98817.14
2018-11-13T05:24:13.991Z,98815.73
2018-11-13T05:26:44.655Z,98823.97
2018-11-13T05:29:15.296Z,98817.42
2018-11-13T05:31:45.871Z,98829.94
2018-11-13T05:34:16.461Z,98831.73
2018-11-13T05:36:47.310Z,98842.55
2018-11-13T05:39:18.005Z,98836.48
2018-11-13T05:41:48.947Z,98832.55
2018-11-13T05:44:19.728Z,98831.94
2018-11-13T05:46:50.517Z,98846.34
2018-11-13T05:49:21.192Z,98851.00
2018-11-13T05:51:51.788Z,98872.79
2018-11-13T05:54:22.462Z,98863.17
2018-11-13T05:56:53.047Z,98870.93
2018-11-13T05:59:24.006Z,98869.41
2018-11-13T06:01:54.683Z,98884.55
2018-11-13T06:04:25.036Z,98890.00
2018-11-13T06:06:55.828Z,98901.06
2018-11-13T06:09:26.658Z,98899.66
2018-11-13T06:11:57.567Z,98899.55
2018-11-13T06:14:28.192Z,98917.03
2018-11-13T06:16:58.861Z,98923.13
2018-11-13T06:19:29.732Z,98923.03
2018-11-13T06:22:00.348Z,98921.23
2018-11-13T06:24:30.955Z,98932.10
2018-11-13T06:27:01.534Z,98933.03
2018-11-13T06:29:32.248Z,98936.58
2018-11-13T06:32:02.982Z,98952.78
2018-11-13T06:34:33.802Z,98955.18
2018-11-13T06:37:04.379Z,98953.89
2018-11-13T06:39:34.987Z,98959.71
2018-11-13T06:42:05.939Z,98962.13
2018-11-13T06:44:36.286Z,98950.69
2018-11-13T06:47:07.520Z,98954.07
2018-11-13T06:49:38.139Z,98957.91
2018-11-13T06:52:08.952Z,98965.66
2018-11-13T06:54:55.692Z,98961.63
2018-11-13T06:57:26.283Z,98971.83
2018-11-13T06:59:56.894Z,98978.38
2018-11-13T07:02:28.433Z,98990.27
2018-11-13T07:04:59.326Z,99009.82
2018-11-13T07:07:30.366Z,99009.44
2018-11-13T07:10:00.939Z,99019.92
2018-11-13T07:12:31.864Z,99022.92
2018-11-13T07:15:02.444Z,99026.47
2018-11-13T07:17:33.312Z,99030.41
2018-11-13T07:20:04.269Z,99039.03
2018-11-13T07:22:34.883Z,99030.06
2018-11-13T07:25:05.983Z,99030.45
2018-11-13T07:27:36.843Z,99037.19
2018-11-13T07:30:10.268Z,99045.52
2018-11-13T07:32:41.363Z,99042.23
2018-11-13T07:35:13.284Z,99041.70
2018-11-13T07:37:59.324Z,99054.22
2018-11-13T07:40:30.019Z,99052.91
2018-11-13T07:43:01.685Z,99057.56
2018-11-13T07:45:32.276Z,99061.88
2018-11-13T07:48:03.288Z,99064.85
2018-11-13T07:50:33.964Z,99061.41
2018-11-13T07:53:04.552Z,99065.72
2018-11-13T07:55:35.125Z,99065.23
2018-11-13T07:58:06.000Z,99074.59
2018-11-13T08:00:36.588Z,99080.38
2018-11-13T08:03:24.072Z,99084.11
2018-11-13T08:05:54.591Z,99096.19
2018-11-13T08:08:25.192Z,99102.55
2018-11-13T08:10:55.976Z,99110.12
2018-11-13T08:13:26.558Z,99117.69
2018-11-13T08:15:57.321Z,99122.25
2018-11-13T08:18:27.923Z,99126.57
2018-11-13T08:20:58.826Z,99134.24
2018-11-13T08:23:29.582Z,99132.93
2018-11-13T08:26:00.217Z,99147.34
2018-11-13T08:28:30.845Z,99156.91
2018-11-13T08:31:01.623Z,99155.21
2018-11-13T08:33:32.214Z,99151.86
2018-11-13T08:36:02.823Z,99152.98
2018-11-13T08:38:34.423Z,99149.20
2018-11-13T08:41:06.376Z,99152.02
2018-11-13T08:43:36.735Z,99139.77
2018-11-13T08:46:07.547Z,99135.74
2018-11-13T08:48:38.163Z,99132.16
2018-11-13T08:51:08.737Z,99140.13
2018-11-13T08:53:39.319Z,99114.48
2018-11-13T08:56:09.919Z,99105.42
2018-11-13T08:58:40.512Z,99099.16
2018-11-13T09:01:11.360Z,99096.09
2018-11-13T09:03:42.957Z,99106.39
2018-11-13T09:06:13.617Z,99107.34
2018-11-13T09:08:44.202Z,99113.32
2018-11-13T09:11:14.813Z,99122.20
2018-11-13T09:13:45.588Z,99126.87
2018-11-13T09:16:16.399Z,99123.77
2018-11-13T09:18:47.243Z,99122.94
2018-11-13T09:21:18.188Z,99133.22
2018-11-13T09:23:48.759Z,99133.86
2018-11-13T09:26:19.684Z,99137.75
2018-11-13T09:28:50.299Z,99135.03
2018-11-13T09:31:21.615Z,99140.17
2018-11-13T09:33:52.420Z,99151.78
2018-11-13T09:36:22.988Z,99155.70
2018-11-13T09:38:53.591Z,99164.48
2018-11-13T09:41:24.352Z,99167.65
2018-11-13T09:43:54.953Z,99173.37
2018-11-13T09:46:25.568Z,99175.69
2018-11-13T09:48:56.316Z,99182.02
2018-11-13T09:51:26.896Z,99178.02
2018-11-13T09:53:57.507Z,99163.14
2018-11-13T09:56:28.141Z,99152.45
2018-11-13T09:58:59.015Z,99158.23
2018-11-13T10:01:30.086Z,99171.78
2018-11-13T10:04:01.329Z,99188.23
2018-11-13T10:06:31.483Z,99181.38
2018-11-13T10:09:02.179Z,99187.58
2018-11-13T10:11:32.497Z,99189.93
2018-11-13T10:14:03.108Z,99200.42
2018-11-13T10:16:33.730Z,99192.45
2018-11-13T10:19:04.530Z,99188.31
2018-11-13T10:21:35.192Z,99169.26
2018-11-13T10:24:06.871Z,99178.14
2018-11-13T10:26:37.469Z,99181.25
2018-11-13T10:29:08.423Z,99187.41
2018-11-13T10:31:39.040Z,99195.36
2018-11-13T10:34:09.837Z,99201.87
2018-11-13T10:36:40.437Z,99205.88
2018-11-13T10:39:11.528Z,99209.62
2018-11-13T10:41:42.370Z,99207.72
2018-11-13T10:44:12.944Z,99211.28
2018-11-13T10:46:43.531Z,99209.44
2018-11-13T10:49:14.153Z,99220.77
2018-11-13T10:51:45.237Z,99220.57
2018-11-13T10:54:15.808Z,99213.56
2018-11-13T10:56:46.420Z,99195.42
2018-11-13T10:59:17.021Z,99202.27
2018-11-13T11:01:52.931Z,99204.69
2018-11-13T11:04:29.072Z,99218.20
2018-11-13T11:06:59.952Z,99233.58
2018-11-13T11:09:30.628Z,99243.84
2018-11-13T11:12:01.200Z,99237.20
2018-11-13T11:14:31.537Z,99231.02
2018-11-13T11:17:02.277Z,99230.06
2018-11-13T11:19:32.953Z,99241.97
2018-11-13T11:22:04.085Z,99232.69
2018-11-13T11:24:34.665Z,99226.22
2018-11-13T11:27:05.644Z,99238.03
2018-11-13T11:29:36.207Z,99240.66
2018-11-13T11:32:07.284Z,99244.15
2018-11-13T11:34:37.892Z,99242.45
2018-11-13T11:37:09.438Z,99240.31
2018-11-13T11:39:40.006Z,99237.59
2018-11-13T11:42:10.698Z,99237.41
2018-11-13T11:44:44.112Z,99238.89
2018-11-13T11:47:15.004Z,99254.06
2018-11-13T11:49:45.607Z,99272.25
2018-11-13T11:52:16.559Z,99264.65
2018-11-13T11:54:47.152Z,99271.03
2018-11-13T11:57:17.762Z,99288.04
2018-11-13T11:59:48.364Z,99263.33
2018-11-13T12:02:19.394Z,99254.52
2018-11-13T12:04:50.196Z,99257.53
2018-11-13T12:07:20.797Z,99259.38
2018-11-13T12:09:51.493Z,99263.95
2018-11-13T12:12:22.162Z,99261.70
2018-11-13T12:14:52.908Z,99241.92
2018-11-13T12:17:23.507Z,99258.69
2018-11-13T12:19:54.437Z,99273.38
2018-11-13T12:22:25.004Z,99275.60
2018-11-13T12:24:55.651Z,99273.84
2018-11-13T12:27:26.601Z,99277.87
2018-11-13T12:29:57.272Z,99283.78
2018-11-13T12:32:28.086Z,99287.17
2018-11-13T12:34:58.776Z,99284.80
2018-11-13T12:37:29.378Z,99278.23
2018-11-13T12:39:59.980Z,99279.09
2018-11-13T12:42:30.650Z,99276.08
2018-11-13T12:45:01.260Z,99284.55
2018-11-13T12:47:32.600Z,99279.84
2018-11-13T12:50:03.233Z,99282.56
2018-11-13T12:52:34.584Z,99288.77
2018-11-13T12:55:07.084Z,99298.88
2018-11-13T12:57:37.771Z,99301.36
2018-11-13T13:00:17.348Z,99295.86
2018-11-13T13:02:47.962Z,99299.61
2018-11-13T13:05:18.608Z,99300.55
2018-11-13T13:07:49.247Z,99306.75
2018-11-13T13:10:20.761Z,99300.09
2018-11-13T13:12:51.723Z,99299.23
2018-11-13T13:15:22.352Z,99313.13
2018-11-13T13:17:52.979Z,99311.33
2018-11-13T13:20:25.263Z,99321.63
2018-11-13T13:22:55.900Z,99316.38
2018-11-13T13:25:26.499Z,99324.78
2018-11-13T13:27:57.126Z,99317.81
2018-11-13T13:30:27.855Z,99309.31
2018-11-13T13:32:59.283Z,99316.08
2018-11-13T13:36:02.537Z,99311.27
2018-11-13T13:38:34.963Z,99312.66
2018-11-13T13:41:06.288Z,99320.06
2018-11-13T13:43:36.704Z,99327.02
2018-11-13T13:46:07.320Z,99324.10
2018-11-13T13:48:38.699Z,99323.09
2018-11-13T13:51:09.318Z,99317.40
2018-11-13T13:53:40.358Z,99325.87
2018-11-13T13:56:11.085Z,99323.34
2018-11-13T13:58:41.702Z,99323.48
2018-11-13T14:01:12.090Z,99324.80
2018-11-13T14:03:42.912Z,99327.62
2018-11-13T14:06:13.760Z,99325.77
2018-11-13T14:08:44.428Z,99328.20
2018-11-13T14:11:15.175Z,99328.77
2018-11-13T14:13:45.807Z,99323.91
2018-11-13T14:16:16.441Z,99320.26
2018-11-13T14:18:47.047Z,99328.41
2018-11-13T14:21:17.663Z,99331.76
2018-11-13T14:23:48.264Z,99331.86
2018-11-13T14:26:18.884Z,99334.77
2018-11-13T14:28:49.518Z,99332.34
2018-11-13T14:31:20.296Z,99345.36
2018-11-13T14:33:50.922Z,99339.28
2018-11-13T14:36:22.748Z,99340.86
2018-11-13T14:38:54.765Z,99341.50
2018-11-13T14:41:25.428Z,99340.58
2018-11-13T14:43:56.023Z,99346.75
2018-11-13T14:46:26.689Z,99353.69
2018-11-13T14:48:57.485Z,99354.45
2018-11-13T14:51:28.316Z,99357.99
2018-11-13T14:53:58.958Z,99356.87
2018-11-13T14:56:29.732Z,99366.59
2018-11-13T14:59:00.322Z,99372.59
2018-11-13T15:01:30.932Z,99375.69
2018-11-13T15:04:01.738Z,99376.14
2018-11-13T15:06:32.736Z,99378.94
2018-11-13T15:09:05.111Z,99385.70
2018-11-13T15:11:35.749Z,99381.22
2018-11-13T15:14:06.477Z,99377.10
2018-11-13T15:16:37.066Z,99381.79
2018-11-13T15:19:08.051Z,99384.09
2018-11-13T15:21:38.705Z,99378.00
2018-11-13T15:24:10.340Z,99377.14
2018-11-13T15:26:41.116Z,99377.67
2018-11-13T15:29:11.733Z,99378.20
2018-11-13T15:31:42.591Z,99383.94
2018-11-13T15:34:13.234Z,99380.44
2018-11-13T15:36:44.198Z,99384.94
2018-11-13T15:39:14.588Z,99391.16
2018-11-13T15:41:45.195Z,99400.89
2018-11-13T15:44:15.829Z,99397.63
2018-11-13T15:46:46.420Z,99407.19
2018-11-13T15:49:17.204Z,99413.25
2018-11-13T15:51:47.974Z,99411.11
2018-11-13T15:54:18.667Z,99411.59
2018-11-13T15:56:49.296Z,99410.05
2018-11-13T15:59:19.940Z,99409.39
2018-11-13T16:01:50.565Z,99418.80
2018-11-13T16:04:21.204Z,99420.45
2018-11-13T16:06:52.011Z,99425.38
2018-11-13T16:09:22.832Z,99421.52
2018-11-13T16:11:53.489Z,99415.66
2018-11-13T16:14:24.117Z,99413.77
2018-11-13T16:16:54.715Z,99422.92
2018-11-13T16:19:25.524Z,99423.56
2018-11-13T16:21:56.160Z,99427.57
2018-11-13T16:24:26.975Z,99430.59
2018-11-13T16:26:57.560Z,99431.84
2018-11-13T16:29:28.144Z,99441.16
2018-11-13T16:31:58.856Z,99447.17
2018-11-13T16:34:29.744Z,99449.04
2018-11-13T16:37:04.234Z,99447.10
2018-11-13T16:39:35.039Z,99444.45
2018-11-13T16:42:05.786Z,99445.36
2018-11-13T16:44:36.618Z,99444.21
2018-11-13T16:47:07.759Z,99447.81
2018-11-13T16:49:38.384Z,99448.30
2018-11-13T16:52:09.049Z,99447.81
2018-11-13T16:54:44.901Z,99453.28
2018-11-13T16:57:16.728Z,99451.24
2018-11-13T16:59:47.785Z,99457.33
2018-11-13T17:02:18.427Z,99463.88
2018-11-13T17:04:49.208Z,99469.16
2018-11-13T17:07:20.846Z,99467.64
2018-11-13T17:09:51.560Z,99467.23
2018-11-13T17:12:22.169Z,99472.09
2018-11-13T17:14:53.552Z,99476.77
2018-11-13T17:17:24.551Z,99480.44
2018-11-13T17:19:55.644Z,99477.83
2018-11-13T17:22:26.291Z,99490.73
2018-11-13T17:24:56.940Z,99482.14
2018-11-13T17:27:27.582Z,99475.98
2018-11-13T17:29:58.508Z,99473.77
2018-11-13T17:32:29.292Z,99482.28
2018-11-13T17:35:00.188Z,99489.14
2018-11-13T17:37:30.826Z,99496.22
2018-11-13T17:40:02.939Z,99497.05
2018-11-13T17:42:33.741Z,99500.27
2018-11-13T17:45:04.585Z,99504.76
2018-11-13T17:47:35.189Z,99512.19
2018-11-13T17:50:12.025Z,99511.89
2018-11-13T17:52:43.537Z,99515.13
2018-11-13T17:55:15.404Z,99519.59
2018-11-13T17:57:46.904Z,99519.02
2018-11-13T18:00:27.744Z,99516.48
2018-11-13T18:02:58.463Z,99511.19
2018-11-13T18:05:29.841Z,99521.88
2018-11-13T18:08:01.353Z,99522.25
2018-11-13T18:10:32.926Z,99530.23
2018-11-13T18:13:03.640Z,99533.98
2018-11-13T18:15:34.256Z,99532.56
2018-11-13T18:18:05.526Z,99532.71
2018-11-13T18:20:37.231Z,99542.45
2018-11-13T18:23:09.256Z,99533.31
2018-11-13T18:25:39.632Z,99539.70
2018-11-13T18:28:11.015Z,99533.31
2018-11-13T18:30:41.972Z,99538.61
2018-11-13T18:33:12.818Z,99553.30
2018-11-13T18:35:43.476Z,99551.72
2018-11-13T18:38:15.741Z,99553.86
2018-11-13T18:40:46.693Z,99549.69
2018-11-13T18:43:17.347Z,99550.49
2018-11-13T18:45:48.284Z,99545.11
2018-11-13T18:48:19.235Z,99548.29
2018-11-13T18:50:50.208Z,99550.59
2018-11-13T18:53:22.086Z,99551.97
2018-11-13T18:55:53.016Z,99550.27
2018-11-13T18:58:23.646Z,99549.49
2018-11-13T19:00:54.533Z,99553.47
2018-11-13T19:03:25.454Z,99550.94
2018-11-13T19:05:56.372Z,99554.04
2018-11-13T19:08:27.620Z,99554.64
2018-11-13T19:10:58.413Z,99550.39
2018-11-13T19:13:29.282Z,99550.23
2018-11-13T19:16:04.237Z,99546.11
2018-11-13T19:18:34.962Z,99554.19
2018-11-13T19:21:06.482Z,99558.16
2018-11-13T19:23:37.498Z,99562.00
2018-11-13T19:26:08.272Z,99555.93
2018-11-13T19:28:38.940Z,99563.59
2018-11-13T19:31:09.643Z,99558.98
2018-11-13T19:33:40.392Z,99559.52
2018-11-13T19:36:11.365Z,99559.57
2018-11-13T19:38:42.053Z,99564.72
2018-11-13T19:41:12.868Z,99568.34
2018-11-13T19:43:43.476Z,99569.44
2018-11-13T19:46:14.101Z,99565.84
2018-11-13T19:48:45.651Z,99571.70
2018-11-13T19:51:16.351Z,99578.67
2018-11-13T19:53:46.994Z,99580.03
2018-11-13T19:56:17.833Z,99577.55
2018-11-13T19:58:48.583Z,99580.59
2018-11-13T20:01:19.617Z,99582.48
2018-11-13T20:03:50.252Z,99588.27
2018-11-13T20:06:20.935Z,99580.17
2018-11-13T20:08:51.553Z,99582.47
2018-11-13T20:11:22.244Z,99587.45
2018-11-13T20:13:59.651Z,99587.56
2018-11-13T20:16:30.541Z,99591.36
2018-11-13T20:19:01.119Z,99593.24
2018-11-13T20:21:32.857Z,99593.36
2018-11-13T20:24:04.061Z,99591.40
2018-11-13T20:26:34.840Z,99600.67
2018-11-13T20:29:06.063Z,99600.79
2018-11-13T20:31:36.861Z,99602.27
2018-11-13T20:34:08.080Z,99601.59
2018-11-13T20:36:38.669Z,99605.15
2018-11-13T20:39:12.940Z,99610.63
2018-11-13T20:41:43.524Z,99603.11
2018-11-13T20:44:14.132Z,99604.11
2018-11-13T20:46:44.707Z,99598.65
2018-11-13T20:49:15.319Z,99597.98
2018-11-13T20:51:45.948Z,99602.05
2018-11-13T20:54:16.532Z,99602.20
2018-11-13T20:56:47.161Z,99605.53
2018-11-13T20:59:17.463Z,99617.75
2018-11-13T21:01:48.132Z,99614.33
2018-11-13T21:04:18.923Z,99610.70
2018-11-13T21:06:50.820Z,99607.38
2018-11-13T21:09:21.450Z,99601.45
2018-11-13T21:11:52.393Z,99602.09
2018-11-13T21:14:23.015Z,99605.61
2018-11-13T21:16:53.712Z,99604.36
2018-11-13T21:19:24.473Z,99613.41
2018-11-13T21:21:55.379Z,99609.67
2018-11-13T21:24:26.225Z,99614.86
2018-11-13T21:26:56.570Z,99604.63
2018-11-13T21:29:27.412Z,99606.89
2018-11-13T21:31:58.348Z,99603.61
2018-11-13T21:34:29.332Z,99606.62
2018-11-13T21:37:00.920Z,99604.70
2018-11-13T21:39:31.616Z,99603.51
2018-11-13T21:42:03.298Z,99603.23
2018-11-13T21:44:33.899Z,99603.81
2018-11-13T21:47:04.951Z,99604.37
2018-11-13T21:49:35.631Z,99605.88
2018-11-13T21:52:07.500Z,99607.22
2018-11-13T21:54:38.096Z,99608.30
2018-11-13T21:57:08.754Z,99611.87
2018-11-13T21:59:39.071Z,99607.15
2018-11-13T22:02:10.015Z,99607.39
2018-11-13T22:04:43.939Z,99610.88
2018-11-13T22:07:14.704Z,99614.87
2018-11-13T22:09:45.583Z,99614.13
2018-11-13T22:12:16.424Z,99614.65
2018-11-13T22:14:47.459Z,99613.35
2018-11-13T22:17:18.734Z,99615.61
2018-11-13T22:19:49.271Z,99617.01
2018-11-13T22:22:19.912Z,99617.11
2018-11-13T22:24:50.633Z,99615.02
2018-11-13T22:27:21.328Z,99617.25
2018-11-13T22:29:52.167Z,99609.09
2018-11-13T22:32:22.782Z,99610.54
2018-11-13T22:34:53.363Z,99615.39
2018-11-13T22:37:24.052Z,99614.98
2018-11-13T22:39:55.464Z,99618.22
2018-11-13T22:42:25.848Z,99611.42
2018-11-13T22:44:56.452Z,99616.88
2018-11-13T22:47:27.036Z,99612.47
2018-11-13T22:49:57.911Z,99619.92
2018-11-13T22:52:28.692Z,99613.16
2018-11-13T22:54:59.435Z,99615.28
2018-11-13T22:57:30.129Z,99613.98
2018-11-13T23:00:00.770Z,99620.47
2018-11-13T23:02:31.560Z,99613.70
2018-11-13T23:05:02.194Z,99618.84
2018-11-13T23:07:32.492Z,99619.68
2018-11-13T23:10:03.108Z,99616.67
2018-11-13T23:12:33.680Z,99623.16
2018-11-13T23:15:04.454Z,99613.70
2018-11-13T23:17:35.198Z,99613.33
2018-11-13T23:20:08.047Z,99608.14
2018-11-13T23:22:38.694Z,99603.97
2018-11-13T23:25:11.742Z,99606.70
2018-11-13T23:27:43.367Z,99596.37
2018-11-13T23:30:17.577Z,99599.80
2018-11-13T23:32:48.547Z,99598.22
2018-11-13T23:35:19.401Z,99596.09
2018-11-13T23:37:51.201Z,99599.84
2018-11-13T23:40:24.614Z,99600.22
2018-11-13T23:42:55.497Z,99601.60
2018-11-13T23:45:26.995Z,99596.87
2018-11-13T23:47:57.440Z,99595.08
2018-11-13T23:50:28.028Z,99601.27
2018-11-13T23:52:58.620Z,99598.68
2018-11-13T23:55:29.221Z,99596.30
2018-11-13T23:57:59.974Z,99598.39
